createdAt,value
2022-08-22T00:02:37.073Z,98.60
2022-08-22T00:03:00.667Z,96.00
2022-08-22T00:03:12.109Z,97.80
2022-08-22T00:05:46.220Z,98.70
2022-08-22T00:08:21.749Z,98.70
2022-08-22T00:11:08.373Z,98.80
2022-08-22T00:13:47.213Z,98.60
2022-08-22T00:16:26.408Z,98.50
2022-08-22T00:19:33.464Z,98.60
2022-08-22T00:22:09.322Z,98.60
2022-08-22T00:24:55.501Z,98.50
2022-08-22T00:27:46.872Z,98.60
2022-08-22T00:30:17.788Z,98.50
2022-08-22T00:32:54.082Z,98.40
2022-08-22T00:35:31.777Z,98.40
2022-08-22T00:38:16.334Z,98.50
2022-08-22T00:40:56.337Z,98.50
2022-08-22T00:43:26.218Z,98.60
2022-08-22T00:46:05.485Z,98.60
2022-08-22T00:48:35.328Z,98.60
2022-08-22T00:51:35.914Z,98.70
2022-08-22T00:54:28.718Z,98.60
2022-08-22T00:57:33.002Z,98.50
2022-08-22T01:00:18.308Z,98.50
2022-08-22T01:03:14.325Z,98.50
2022-08-22T01:06:08.714Z,98.50
2022-08-22T01:08:38.497Z,98.50
2022-08-22T01:11:37.924Z,98.50
2022-08-22T01:14:35.654Z,98.30
2022-08-22T01:17:22.553Z,98.30
2022-08-22T01:20:17.578Z,98.30
2022-08-22T01:23:09.004Z,98.50
2022-08-22T01:26:13.320Z,98.60
2022-08-22T01:29:02.084Z,98.40
2022-08-22T01:31:56.359Z,98.40
2022-08-22T01:34:53.739Z,98.60
2022-08-22T01:37:54.346Z,98.60
2022-08-22T01:40:30.397Z,98.50
2022-08-22T01:43:58.812Z,98.40
2022-08-22T01:46:46.582Z,98.40
2022-08-22T01:49:26.595Z,98.40
2022-08-22T01:52:06.324Z,98.30
2022-08-22T01:54:58.989Z,98.40
2022-08-22T01:57:26.894Z,98.30
2022-08-22T01:59:59.208Z,98.30
2022-08-22T02:02:53.393Z,98.30
2022-08-22T02:05:59.437Z,98.30
2022-08-22T02:08:57.336Z,98.20
2022-08-22T02:11:43.648Z,98.20
2022-08-22T02:14:17.512Z,98.20
2022-08-22T02:16:53.652Z,98.20
2022-08-22T02:19:31.636Z,98.20
2022-08-22T02:22:44.687Z,98.20
2022-08-22T02:25:11.940Z,98.20
2022-08-22T02:28:04.065Z,98.20
2022-08-22T02:30:48.817Z,98.20
2022-08-22T02:33:38.593Z,98.20
2022-08-22T02:36:33.357Z,98.20
2022-08-22T02:39:34.750Z,98.20
2022-08-22T02:42:28.556Z,98.20
2022-08-22T02:45:25.621Z,98.20
2022-08-22T02:48:29.596Z,98.20
2022-08-22T02:51:10.183Z,98.20
2022-08-22T02:53:48.341Z,98.20
2022-08-22T02:56:27.060Z,98.20
2022-08-22T02:59:18.888Z,98.30
2022-08-22T03:01:47.623Z,98.20
2022-08-22T03:04:26.560Z,98.20
2022-08-22T03:07:31.919Z,98.20
2022-08-22T03:10:23.026Z,98.30
2022-08-22T03:12:58.201Z,98.20
2022-08-22T03:15:34.725Z,98.30
2022-08-22T03:18:04.456Z,98.30
2022-08-22T03:20:55.788Z,98.20
2022-08-22T03:23:43.769Z,98.30
2022-08-22T03:26:24.706Z,98.30
2022-08-22T03:29:05.954Z,98.40
2022-08-22T03:31:33.792Z,98.40
2022-08-22T03:34:30.886Z,98.40
2022-08-22T03:37:17.419Z,98.50
2022-08-22T03:39:59.838Z,98.50
2022-08-22T03:42:26.794Z,98.40
2022-08-22T03:45:35.274Z,98.40
2022-08-22T03:48:48.065Z,98.40
2022-08-22T03:51:39.459Z,98.50
2022-08-22T03:54:45.527Z,98.40
2022-08-22T03:57:22.799Z,98.40
2022-08-22T04:00:03.340Z,98.40
2022-08-22T04:02:43.530Z,98.40
2022-08-22T04:05:39.886Z,98.40
2022-08-22T04:08:09.465Z,98.40
2022-08-22T04:11:09.037Z,98.40
2022-08-22T04:13:55.339Z,98.40
2022-08-22T04:17:00.109Z,98.40
2022-08-22T04:19:42.643Z,98.40
2022-08-22T04:22:12.744Z,98.40
2022-08-22T04:24:53.814Z,98.40
2022-08-22T04:27:34.012Z,98.40
2022-08-22T04:30:16.418Z,98.40
2022-08-22T04:32:45.410Z,98.40
2022-08-22T04:35:18.829Z,98.40
2022-08-22T04:37:53.725Z,98.40
2022-08-22T04:40:29.210Z,98.40
2022-08-22T04:42:58.751Z,98.40
2022-08-22T04:45:41.697Z,98.40
2022-08-22T04:48:21.439Z,98.40
2022-08-22T04:51:03.236Z,98.40
2022-08-22T04:53:48.617Z,98.40
2022-08-22T04:56:30.909Z,98.40
2022-08-22T04:59:03.624Z,98.40
2022-08-22T05:01:39.584Z,98.50
2022-08-22T05:04:10.400Z,98.40
2022-08-22T05:06:41.671Z,98.50
2022-08-22T05:09:16.010Z,98.50
2022-08-22T05:11:46.119Z,98.50
2022-08-22T05:14:24.141Z,98.50
2022-08-22T05:16:54.978Z,98.50
2022-08-22T05:19:31.751Z,98.50
2022-08-22T05:22:00.879Z,98.50
2022-08-22T05:24:40.376Z,98.50
2022-08-22T05:27:22.959Z,98.50
2022-08-22T05:29:53.840Z,98.50
2022-08-22T05:32:40.753Z,98.50
2022-08-22T05:35:09.661Z,98.50
2022-08-22T05:37:43.487Z,98.50
2022-08-22T05:40:26.156Z,98.50
2022-08-22T05:42:54.941Z,98.60
2022-08-22T05:45:22.705Z,98.70
2022-08-22T05:47:54.946Z,99.00
2022-08-22T05:50:43.443Z,98.90
2022-08-22T05:53:29.367Z,98.90
2022-08-22T05:56:05.667Z,99.00
2022-08-22T05:58:46.286Z,99.10
2022-08-22T06:01:38.051Z,99.10
2022-08-22T06:04:25.956Z,99.10
2022-08-22T06:07:10.114Z,99.30
2022-08-22T06:09:48.017Z,99.30
2022-08-22T06:12:21.817Z,99.30
2022-08-22T06:15:12.717Z,99.40
2022-08-22T06:17:49.755Z,99.40
2022-08-22T06:20:24.114Z,99.40
2022-08-22T06:22:58.752Z,99.40
2022-08-22T06:25:38.706Z,99.50
2022-08-22T06:28:11.558Z,99.50
2022-08-22T06:30:39.825Z,99.50
2022-08-22T06:33:12.314Z,99.50
2022-08-22T06:36:20.482Z,99.50
2022-08-22T06:39:17.086Z,99.50
2022-08-22T06:42:04.828Z,99.70
2022-08-22T06:44:44.889Z,99.80
2022-08-22T06:47:28.589Z,99.70
2022-08-22T06:50:34.155Z,99.90
2022-08-22T06:53:05.506Z,99.90
2022-08-22T06:55:33.887Z,99.60
2022-08-22T06:58:11.834Z,99.90
2022-08-22T07:00:42.575Z,99.90
2022-08-22T07:03:20.316Z,99.90
2022-08-22T07:05:47.619Z,99.90
2022-08-22T07:08:19.693Z,99.90
2022-08-22T07:11:05.472Z,99.90
2022-08-22T07:13:34.883Z,99.90
2022-08-22T07:16:07.753Z,99.90
2022-08-22T07:18:34.982Z,99.90
2022-08-22T07:21:04.887Z,99.90
2022-08-22T07:23:48.361Z,99.90
2022-08-22T07:26:52.996Z,99.90
2022-08-22T07:29:28.760Z,99.90
2022-08-22T07:32:10.309Z,99.90
2022-08-22T07:34:58.087Z,99.90
2022-08-22T07:37:51.158Z,99.90
2022-08-22T07:40:34.616Z,99.90
2022-08-22T07:43:30.056Z,99.90
2022-08-22T07:46:02.766Z,99.90
2022-08-22T07:49:05.953Z,99.90
2022-08-22T07:51:46.529Z,99.90
2022-08-22T07:54:17.350Z,99.90
2022-08-22T07:56:56.161Z,99.90
2022-08-22T07:59:24.654Z,99.90
2022-08-22T08:01:53.548Z,99.90
2022-08-22T08:04:28.966Z,99.90
2022-08-22T08:06:59.485Z,99.90
2022-08-22T08:09:33.236Z,99.90
2022-08-22T08:12:03.368Z,99.90
2022-08-22T08:14:31.988Z,99.90
2022-08-22T08:17:19.300Z,99.90
2022-08-22T08:19:47.356Z,99.90
2022-08-22T08:22:19.849Z,99.90
2022-08-22T08:24:49.187Z,99.90
2022-08-22T08:27:42.598Z,99.90
2022-08-22T08:30:24.203Z,99.90
2022-08-22T08:32:57.534Z,99.90
2022-08-22T08:36:03.300Z,99.90
2022-08-22T08:39:12.433Z,99.90
2022-08-22T08:42:27.188Z,99.90
2022-08-22T08:45:12.616Z,99.90
2022-08-22T08:47:54.769Z,99.90
2022-08-22T08:50:40.126Z,99.90
2022-08-22T08:53:25.799Z,99.90
2022-08-22T08:56:01.513Z,99.90
2022-08-22T08:59:02.220Z,99.90
2022-08-22T09:01:44.867Z,99.90
2022-08-22T09:04:21.024Z,99.90
2022-08-22T09:07:21.426Z,99.90
2022-08-22T09:10:27.284Z,99.90
2022-08-22T09:13:46.116Z,99.90
2022-08-22T09:16:51.873Z,99.90
2022-08-22T09:19:44.972Z,99.90
2022-08-22T09:22:17.991Z,99.90
2022-08-22T09:25:15.223Z,99.90
2022-08-22T09:27:54.029Z,99.90
2022-08-22T09:30:28.550Z,99.90
2022-08-22T09:33:19.116Z,99.90
2022-08-22T09:36:06.779Z,99.90
2022-08-22T09:39:02.708Z,99.90
2022-08-22T09:41:40.853Z,99.90
2022-08-22T09:44:19.409Z,99.90
2022-08-22T09:47:14.611Z,99.90
2022-08-22T09:49:50.490Z,99.90
2022-08-22T09:52:42.208Z,99.90
2022-08-22T09:55:27.861Z,99.90
2022-08-22T09:58:47.653Z,99.90
2022-08-22T10:01:40.119Z,99.90
2022-08-22T10:04:21.477Z,99.90
2022-08-22T10:07:32.306Z,99.90
2022-08-22T10:10:22.232Z,99.90
2022-08-22T10:12:52.362Z,99.90
2022-08-22T10:15:41.155Z,99.90
2022-08-22T10:18:35.409Z,99.90
2022-08-22T10:21:11.584Z,99.90
2022-08-22T10:24:07.765Z,99.90
2022-08-22T10:27:07.550Z,99.90
2022-08-22T10:29:48.987Z,98.70
2022-08-22T10:32:35.036Z,98.70
2022-08-22T10:35:26.630Z,96.80
2022-08-22T10:38:20.450Z,98.40
2022-08-22T10:41:12.303Z,99.10
2022-08-22T10:44:08.161Z,98.30
2022-08-22T10:46:57.130Z,96.00
2022-08-22T10:49:51.224Z,97.20
2022-08-22T10:52:31.477Z,95.70
2022-08-22T10:55:00.921Z,95.50
2022-08-22T10:57:58.446Z,96.30
2022-08-22T11:00:50.639Z,96.70
2022-08-22T11:03:39.616Z,96.70
2022-08-22T11:06:25.856Z,96.50
2022-08-22T11:09:16.150Z,95.60
2022-08-22T11:12:12.730Z,96.40
2022-08-22T11:15:03.880Z,95.00
2022-08-22T11:18:13.009Z,95.60
2022-08-22T11:21:21.455Z,95.00
2022-08-22T11:24:34.823Z,95.20
2022-08-22T11:27:12.997Z,95.90
2022-08-22T11:29:46.205Z,95.50
2022-08-22T11:32:33.967Z,96.20
2022-08-22T11:35:11.173Z,96.30
2022-08-22T11:37:58.373Z,95.70
2022-08-22T11:40:38.095Z,95.80
2022-08-22T11:43:32.372Z,95.70
2022-08-22T11:46:20.078Z,96.30
2022-08-22T11:49:25.667Z,96.70
2022-08-22T11:52:25.468Z,97.00
2022-08-22T11:55:07.707Z,97.60
2022-08-22T11:57:45.307Z,96.90
2022-08-22T12:00:33.427Z,96.30
2022-08-22T12:03:25.083Z,94.70
2022-08-22T12:06:04.355Z,96.50
2022-08-22T12:08:34.188Z,94.10
2022-08-22T12:11:37.617Z,92.00
2022-08-22T12:14:19.486Z,94.60
2022-08-22T12:17:07.544Z,93.90
2022-08-22T12:20:17.526Z,93.20
2022-08-22T12:22:52.970Z,90.60
2022-08-22T12:25:35.285Z,91.90
2022-08-22T12:28:11.924Z,92.60
2022-08-22T12:31:05.632Z,92.10
2022-08-22T12:34:02.993Z,91.30
2022-08-22T12:36:57.202Z,92.20
2022-08-22T12:39:49.210Z,90.30
2022-08-22T12:42:27.648Z,90.10
2022-08-22T12:45:26.511Z,90.90
2022-08-22T12:48:25.769Z,90.30
2022-08-22T12:51:17.409Z,91.60
2022-08-22T12:53:45.295Z,90.10
2022-08-22T12:56:16.670Z,89.70
2022-08-22T12:59:17.777Z,90.30
2022-08-22T13:01:48.036Z,91.10
2022-08-22T13:04:33.086Z,92.10
2022-08-22T13:07:27.397Z,91.80
2022-08-22T13:10:17.485Z,92.50
2022-08-22T13:12:52.918Z,92.20
2022-08-22T13:15:37.499Z,92.80
2022-08-22T13:18:29.938Z,93.00
2022-08-22T13:21:01.978Z,91.50
2022-08-22T13:23:39.916Z,92.00
2022-08-22T13:26:11.024Z,91.10
2022-08-22T13:29:04.183Z,91.80
2022-08-22T13:31:41.123Z,91.60
2022-08-22T13:34:23.786Z,92.20
2022-08-22T13:36:54.750Z,92.50
2022-08-22T13:39:34.117Z,92.40
2022-08-22T13:42:07.689Z,92.40
2022-08-22T13:44:48.660Z,91.60
2022-08-22T13:47:18.611Z,91.00
2022-08-22T13:50:14.648Z,90.50
2022-08-22T13:52:49.394Z,90.10
2022-08-22T13:55:34.140Z,91.10
2022-08-22T13:58:43.731Z,91.80
2022-08-22T14:01:50.139Z,91.00
2022-08-22T14:04:35.782Z,90.50
2022-08-22T14:07:04.480Z,90.20
2022-08-22T14:09:40.789Z,91.30
2022-08-22T14:12:16.000Z,91.60
2022-08-22T14:14:47.132Z,91.50
2022-08-22T14:17:18.310Z,92.20
2022-08-22T14:19:59.422Z,90.80
2022-08-22T14:22:35.372Z,91.70
2022-08-22T14:25:19.394Z,91.50
2022-08-22T14:27:57.793Z,91.10
2022-08-22T14:30:48.290Z,91.60
2022-08-22T14:33:31.415Z,92.40
2022-08-22T14:36:03.532Z,91.50
2022-08-22T14:38:39.543Z,91.90
2022-08-22T14:41:55.706Z,91.70
2022-08-22T14:44:31.584Z,92.50
2022-08-22T14:47:30.334Z,92.40
2022-08-22T14:50:11.194Z,92.40
2022-08-22T14:52:48.657Z,92.90
2022-08-22T14:55:21.106Z,93.10
2022-08-22T14:57:59.953Z,93.50
2022-08-22T15:00:33.023Z,93.80
2022-08-22T15:03:32.820Z,94.10
2022-08-22T15:06:03.638Z,95.00
2022-08-22T15:08:46.459Z,95.10
2022-08-22T15:11:23.025Z,95.20
2022-08-22T15:13:59.220Z,95.40
2022-08-22T15:16:44.847Z,96.00
2022-08-22T15:19:35.610Z,96.30
2022-08-22T15:22:35.837Z,96.40
2022-08-22T15:25:12.187Z,97.90
2022-08-22T15:28:05.037Z,97.30
2022-08-22T15:30:48.257Z,97.40
2022-08-22T15:33:32.161Z,97.60
2022-08-22T15:36:11.610Z,97.50
2022-08-22T15:38:48.296Z,98.00
2022-08-22T15:41:36.525Z,98.00
2022-08-22T15:44:33.129Z,98.00
2022-08-22T15:47:11.578Z,99.90
2022-08-22T15:50:05.687Z,99.90
2022-08-22T15:52:59.098Z,99.20
2022-08-22T15:55:34.542Z,99.90
2022-08-22T15:58:20.601Z,99.90
2022-08-22T16:01:18.904Z,99.70
2022-08-22T16:04:31.693Z,99.90
2022-08-22T16:07:02.773Z,99.90
2022-08-22T16:09:38.616Z,99.90
2022-08-22T16:12:10.437Z,99.90
2022-08-22T16:14:37.533Z,99.90
2022-08-22T16:17:22.994Z,99.90
2022-08-22T16:20:19.231Z,99.90
2022-08-22T16:22:58.814Z,99.90
2022-08-22T16:25:44.527Z,99.90
2022-08-22T16:28:56.822Z,99.90
2022-08-22T16:31:19.671Z,99.90
2022-08-22T16:33:47.286Z,99.90
2022-08-22T16:36:16.108Z,99.90
2022-08-22T16:38:53.024Z,99.90
2022-08-22T16:41:41.885Z,99.90
2022-08-22T16:44:28.094Z,99.90
2022-08-22T16:47:18.373Z,99.90
2022-08-22T16:50:22.686Z,99.90
2022-08-22T16:52:57.911Z,99.90
2022-08-22T16:55:31.649Z,99.90
2022-08-22T16:58:06.835Z,99.90
2022-08-22T17:00:43.321Z,99.90
2022-08-22T17:03:29.025Z,99.90
2022-08-22T17:06:47.848Z,99.90
2022-08-22T17:09:45.967Z,99.90
2022-08-22T17:12:39.204Z,99.90
2022-08-22T17:15:28.245Z,99.90
2022-08-22T17:17:55.694Z,99.90
2022-08-22T17:21:25.580Z,99.90
2022-08-22T17:24:31.977Z,99.90
2022-08-22T17:27:21.664Z,99.90
2022-08-22T17:30:11.602Z,99.90
2022-08-22T17:33:11.087Z,99.90
2022-08-22T17:35:55.272Z,99.90
2022-08-22T17:38:31.356Z,99.90
2022-08-22T17:41:29.252Z,99.90
2022-08-22T17:44:12.562Z,99.90
2022-08-22T17:47:18.925Z,99.90
2022-08-22T17:50:09.494Z,99.90
2022-08-22T17:52:42.826Z,99.90
2022-08-22T17:55:18.336Z,99.90
2022-08-22T17:57:59.367Z,99.90
2022-08-22T18:00:31.510Z,99.90
2022-08-22T18:03:25.037Z,99.90
2022-08-22T18:06:18.228Z,99.90
2022-08-22T18:11:56.589Z,99.90
2022-08-22T18:14:40.663Z,99.90
2022-08-22T18:17:49.492Z,99.90
2022-08-22T18:20:35.035Z,99.90
2022-08-22T18:23:21.859Z,99.90
2022-08-22T18:26:27.157Z,99.90
2022-08-22T18:29:07.182Z,99.90
2022-08-22T18:31:53.837Z,99.90
2022-08-22T18:34:41.966Z,99.90
2022-08-22T18:37:35.460Z,99.90
2022-08-22T18:40:49.673Z,99.90
2022-08-22T18:43:24.220Z,99.90
2022-08-22T18:45:51.484Z,99.90
2022-08-22T18:48:59.522Z,99.90
2022-08-22T18:51:31.745Z,99.90
2022-08-22T18:54:04.411Z,99.90
2022-08-22T18:56:31.377Z,99.90
2022-08-22T18:59:31.220Z,99.90
2022-08-22T19:02:01.162Z,99.90
2022-08-22T19:04:52.601Z,99.90
2022-08-22T19:07:38.404Z,99.90
2022-08-22T19:10:27.878Z,99.90
2022-08-22T19:13:04.156Z,99.90
2022-08-22T19:16:16.901Z,99.90
2022-08-22T19:19:02.562Z,99.90
2022-08-22T19:21:51.788Z,99.90
2022-08-22T19:24:28.017Z,99.90
2022-08-22T19:27:07.448Z,99.90
2022-08-22T19:29:34.416Z,99.90
2022-08-22T19:32:12.746Z,99.90
2022-08-22T19:34:46.809Z,99.90
2022-08-22T19:37:31.948Z,99.90
2022-08-22T19:40:09.996Z,99.90
2022-08-22T19:42:39.745Z,99.90
2022-08-22T19:45:09.360Z,99.90
2022-08-22T19:47:43.597Z,99.90
2022-08-22T19:50:10.789Z,99.90
2022-08-22T19:52:56.773Z,99.90
2022-08-22T19:55:39.291Z,99.90
2022-08-22T19:58:43.592Z,99.90
2022-08-22T20:01:35.641Z,99.90
2022-08-22T20:04:26.643Z,99.90
2022-08-22T20:07:14.390Z,99.90
2022-08-22T20:10:19.379Z,99.90
2022-08-22T20:12:53.390Z,99.90
2022-08-22T20:15:25.013Z,99.90
2022-08-22T20:21:01.756Z,99.90
2022-08-22T20:23:51.419Z,99.90
2022-08-22T20:26:18.877Z,99.90
2022-08-22T20:28:49.921Z,99.90
2022-08-22T20:31:24.730Z,99.90
2022-08-22T20:33:59.287Z,99.90
2022-08-22T20:36:29.694Z,99.90
2022-08-22T20:39:05.688Z,99.90
2022-08-22T20:41:40.549Z,99.90
2022-08-22T20:44:27.210Z,99.90
2022-08-22T20:47:13.751Z,99.90
2022-08-22T20:49:57.525Z,99.90
2022-08-22T20:52:32.176Z,99.90
2022-08-22T20:55:04.382Z,99.90
2022-08-22T20:57:33.473Z,99.90
2022-08-22T21:00:19.266Z,99.90
2022-08-22T21:03:09.315Z,99.90
2022-08-22T21:05:42.684Z,99.90
2022-08-22T21:08:28.173Z,99.90
2022-08-22T21:11:26.069Z,99.90
2022-08-22T21:13:54.216Z,99.90
2022-08-22T21:16:33.154Z,99.90
2022-08-22T21:19:04.067Z,99.90
2022-08-22T21:21:35.409Z,99.90
2022-08-22T21:24:08.414Z,99.90
2022-08-22T21:26:39.660Z,99.90
2022-08-22T21:29:08.734Z,99.90
2022-08-22T21:31:46.930Z,99.90
2022-08-22T21:34:34.925Z,99.90
2022-08-22T21:37:13.886Z,99.90
2022-08-22T21:39:58.562Z,99.90
2022-08-22T21:42:34.676Z,99.90
2022-08-22T21:45:08.777Z,99.90
2022-08-22T21:47:41.601Z,99.90
2022-08-22T21:50:37.865Z,99.90
2022-08-22T21:53:25.244Z,99.90
2022-08-22T21:56:12.158Z,99.90
2022-08-22T21:58:39.473Z,99.90
2022-08-22T22:01:27.890Z,99.90
2022-08-22T22:03:55.468Z,99.90
2022-08-22T22:06:22.482Z,99.90
2022-08-22T22:08:49.525Z,99.90
2022-08-22T22:11:17.624Z,99.90
2022-08-22T22:13:45.497Z,99.90
2022-08-22T22:16:15.310Z,99.90
2022-08-22T22:18:42.397Z,99.90
2022-08-22T22:21:09.771Z,99.90
2022-08-22T22:23:36.731Z,99.90
2022-08-22T22:26:06.480Z,99.90
2022-08-22T22:28:40.136Z,99.90
2022-08-22T22:31:08.298Z,99.90
2022-08-22T22:33:40.828Z,99.90
2022-08-22T22:36:24.973Z,99.90
2022-08-22T22:38:52.940Z,99.90
2022-08-22T22:41:25.411Z,99.90
2022-08-22T22:43:53.461Z,99.90
2022-08-22T22:46:21.247Z,99.90
2022-08-22T22:48:48.344Z,99.90
2022-08-22T22:51:15.730Z,99.90
2022-08-22T22:53:43.820Z,99.90
2022-08-22T22:56:17.800Z,99.90
2022-08-22T22:58:49.466Z,99.90
2022-08-22T23:01:21.266Z,99.90
2022-08-22T23:03:52.505Z,99.90
2022-08-22T23:06:22.455Z,99.90
2022-08-22T23:08:49.578Z,99.90
2022-08-22T23:11:23.362Z,99.90
2022-08-22T23:13:50.714Z,99.90
2022-08-22T23:16:20.962Z,99.90
2022-08-22T23:18:48.357Z,99.90
2022-08-22T23:21:19.813Z,99.90
2022-08-22T23:23:48.189Z,99.90
2022-08-22T23:26:15.932Z,99.90
2022-08-22T23:28:43.296Z,99.90
2022-08-22T23:31:19.668Z,99.90
2022-08-22T23:33:46.953Z,99.90
2022-08-22T23:36:18.757Z,99.90
2022-08-22T23:38:46.728Z,99.90
2022-08-22T23:41:17.694Z,99.90
2022-08-22T23:43:49.063Z,99.90
2022-08-22T23:46:18.716Z,99.90
2022-08-22T23:48:45.841Z,99.90
2022-08-22T23:51:15.125Z,99.90
2022-08-22T23:53:44.105Z,99.90
2022-08-22T23:56:19.661Z,99.90
2022-08-22T23:58:49.222Z,99.90
